Pimmit, Virginia
Current Conditions -  °F | °C
As of 7:52 PM on Thursday 27 Nov 2014 (Local Time) from KDCA Reporting Station
Few Clouds Few Clouds  
Wind Chill: 36°   Ceiling: Unl
Heat Index: 40°   Visibility: 10mi
Dew Point: 27°   Wind: 6mph
Humidity: 60%   Direction: 280°W
Pressure: 30.16"   Gusts: NA
Location:  38.9012°N, 77.1971°W
Report Text: KDCA 280052Z 28005KT 10SM FEW080 04/M03 A3016 RMK AO2 SLP211 T00441028
Loading
Personal Weather Stations






























Interactive Weather Map New forecast layout! Learn more

10-Day Weather Forecast

Advertisements
Track Severe Weather on mobile